sensor_id;sensor_type;location;lat;lon;timestamp;pressure;altitude;pressure_sealevel;temperature;humidity
9129;BME280;4599;50.906;6.786;2023-05-02T00:03:38;17275.84;;;-142.83;80.98
9129;BME280;4599;50.906;6.786;2023-05-02T00:08:02;17232.88;;;-142.83;81.69
9129;BME280;4599;50.906;6.786;2023-05-02T00:12:24;17208.34;;;-142.83;82.78
9129;BME280;4599;50.906;6.786;2023-05-02T00:16:46;17222.66;;;-142.83;82.46
9129;BME280;4599;50.906;6.786;2023-05-02T00:21:07;17198.13;;;-142.83;82.45
9129;BME280;4599;50.906;6.786;2023-05-02T00:25:31;17196.06;;;-142.83;82.68
9129;BME280;4599;50.906;6.786;2023-05-02T00:29:53;17189.94;;;-142.83;83.66
9129;BME280;4599;50.906;6.786;2023-05-02T00:34:15;17232.88;;;-142.83;82.44
9129;BME280;4599;50.906;6.786;2023-05-02T00:38:37;17183.81;;;-142.83;82.59
9129;BME280;4599;50.906;6.786;2023-05-02T00:43:00;17187.88;;;-142.83;83.06
9129;BME280;4599;50.906;6.786;2023-05-02T00:47:22;17179.72;;;-142.83;83.92
9129;BME280;4599;50.906;6.786;2023-05-02T00:51:44;17146.97;;;-142.83;84.73
9129;BME280;4599;50.906;6.786;2023-05-02T00:56:06;17163.34;;;-142.83;84.93
9129;BME280;4599;50.906;6.786;2023-05-02T01:00:40;17187.88;;;-142.83;84.43
9129;BME280;4599;50.906;6.786;2023-05-02T01:05:10;17183.81;;;-142.83;84.57
9129;BME280;4599;50.906;6.786;2023-05-02T01:09:42;17200.16;;;-142.83;84.95
9129;BME280;4599;50.906;6.786;2023-05-02T01:14:10;17200.16;;;-142.83;85.57
9129;BME280;4599;50.906;6.786;2023-05-02T01:18:37;17165.38;;;-142.83;85.37
9129;BME280;4599;50.906;6.786;2023-05-02T01:23:05;17181.75;;;-142.83;85.17
9129;BME280;4599;50.906;6.786;2023-05-02T01:27:38;17179.72;;;-142.83;84.88
9129;BME280;4599;50.906;6.786;2023-05-02T01:32:06;17167.44;;;-142.83;85.62
9129;BME280;4599;50.906;6.786;2023-05-02T01:36:30;17183.81;;;-142.83;85.53
9129;BME280;4599;50.906;6.786;2023-05-02T01:40:54;17157.22;;;-142.83;85.29
9129;BME280;4599;50.906;6.786;2023-05-02T01:45:19;17179.72;;;-142.83;85.06
9129;BME280;4599;50.906;6.786;2023-05-02T01:49:45;17183.81;;;-142.83;84.38
9129;BME280;4599;50.906;6.786;2023-05-02T01:54:07;17171.53;;;-142.83;84.50
9129;BME280;4599;50.906;6.786;2023-05-02T01:58:31;17183.81;;;-142.83;84.26
9129;BME280;4599;50.906;6.786;2023-05-02T02:02:55;17206.28;;;-142.83;84.35
9129;BME280;4599;50.906;6.786;2023-05-02T02:07:19;17224.72;;;-142.83;83.76
9129;BME280;4599;50.906;6.786;2023-05-02T02:11:52;17183.81;;;-142.83;84.13
9129;BME280;4599;50.906;6.786;2023-05-02T02:16:21;17173.56;;;-142.83;84.43
9129;BME280;4599;50.906;6.786;2023-05-02T02:20:47;17198.13;;;-142.83;84.32
9129;BME280;4599;50.906;6.786;2023-05-02T02:25:14;17196.06;;;-142.83;83.84
9129;BME280;4599;50.906;6.786;2023-05-02T02:29:36;17187.88;;;-142.83;84.06
9129;BME280;4599;50.906;6.786;2023-05-02T02:33:58;17208.34;;;-142.83;84.84
9129;BME280;4599;50.906;6.786;2023-05-02T02:38:25;17167.44;;;-142.83;84.39
9129;BME280;4599;50.906;6.786;2023-05-02T02:42:59;17171.53;;;-142.83;84.57
9129;BME280;4599;50.906;6.786;2023-05-02T02:47:28;17194.03;;;-142.83;84.29
9129;BME280;4599;50.906;6.786;2023-05-02T02:51:57;17130.63;;;-142.83;84.86
9129;BME280;4599;50.906;6.786;2023-05-02T02:56:27;17179.72;;;-142.83;85.18
9129;BME280;4599;50.906;6.786;2023-05-02T03:00:52;17202.22;;;-142.83;84.36
9129;BME280;4599;50.906;6.786;2023-05-02T03:05:14;17220.63;;;-142.83;84.29
9129;BME280;4599;50.906;6.786;2023-05-02T03:09:40;17177.66;;;-142.83;83.69
9129;BME280;4599;50.906;6.786;2023-05-02T03:14:02;17175.63;;;-142.83;83.27
9129;BME280;4599;50.906;6.786;2023-05-02T03:18:25;17210.38;;;-142.83;83.37
9129;BME280;4599;50.906;6.786;2023-05-02T03:22:47;17222.66;;;-142.83;82.92
9129;BME280;4599;50.906;6.786;2023-05-02T03:27:09;17196.06;;;-142.83;83.59
9129;BME280;4599;50.906;6.786;2023-05-02T03:31:31;17200.16;;;-142.83;84.57
9129;BME280;4599;50.906;6.786;2023-05-02T03:35:54;17212.44;;;-142.83;83.51
9129;BME280;4599;50.906;6.786;2023-05-02T03:40:16;17181.75;;;-142.83;82.96
9129;BME280;4599;50.906;6.786;2023-05-02T03:44:38;17208.34;;;-142.83;83.52
9129;BME280;4599;50.906;6.786;2023-05-02T03:49:00;17234.94;;;-142.83;83.80
9129;BME280;4599;50.906;6.786;2023-05-02T03:53:23;17196.06;;;-142.83;83.41
9129;BME280;4599;50.906;6.786;2023-05-02T03:57:47;17208.34;;;-142.83;82.74
9129;BME280;4599;50.906;6.786;2023-05-02T04:02:09;17200.16;;;-142.83;83.29
9129;BME280;4599;50.906;6.786;2023-05-02T04:06:31;17185.84;;;-142.83;84.23
9129;BME280;4599;50.906;6.786;2023-05-02T04:10:54;17161.31;;;-142.83;84.06
9129;BME280;4599;50.906;6.786;2023-05-02T04:15:16;17179.72;;;-142.83;83.79
9129;BME280;4599;50.906;6.786;2023-05-02T04:19:37;17200.16;;;-142.83;84.13
9129;BME280;4599;50.906;6.786;2023-05-02T04:23:59;17204.25;;;-142.83;83.46
9129;BME280;4599;50.906;6.786;2023-05-02T04:28:22;17171.53;;;-142.83;84.90
9129;BME280;4599;50.906;6.786;2023-05-02T04:32:45;17163.34;;;-142.83;84.94
9129;BME280;4599;50.906;6.786;2023-05-02T04:37:07;17140.84;;;-142.83;85.06
9129;BME280;4599;50.906;6.786;2023-05-02T04:41:29;17200.16;;;-142.83;85.47
9129;BME280;4599;50.906;6.786;2023-05-02T04:45:52;17187.88;;;-142.83;85.47
9129;BME280;4599;50.906;6.786;2023-05-02T04:50:14;17183.81;;;-142.83;85.69
9129;BME280;4599;50.906;6.786;2023-05-02T04:54:36;17183.81;;;-142.83;86.29
9129;BME280;4599;50.906;6.786;2023-05-02T04:58:57;17171.53;;;-142.83;85.49
9129;BME280;4599;50.906;6.786;2023-05-02T05:03:21;17200.16;;;-142.83;84.29
9129;BME280;4599;50.906;6.786;2023-05-02T05:07:42;17187.88;;;-142.83;84.70
9129;BME280;4599;50.906;6.786;2023-05-02T05:12:04;17224.72;;;-142.83;83.86
9129;BME280;4599;50.906;6.786;2023-05-02T05:16:26;17194.03;;;-142.83;83.32
9129;BME280;4599;50.906;6.786;2023-05-02T05:20:49;17171.53;;;-142.83;83.15
9129;BME280;4599;50.906;6.786;2023-05-02T05:25:11;17202.22;;;-142.83;82.92
9129;BME280;4599;50.906;6.786;2023-05-02T05:29:33;17200.16;;;-142.83;82.38
9129;BME280;4599;50.906;6.786;2023-05-02T05:33:55;17175.63;;;-142.83;82.65
9129;BME280;4599;50.906;6.786;2023-05-02T05:38:18;17196.06;;;-142.83;82.82
9129;BME280;4599;50.906;6.786;2023-05-02T05:42:40;17196.06;;;-142.83;82.34
9129;BME280;4599;50.906;6.786;2023-05-02T05:47:02;17220.63;;;-142.83;81.71
9129;BME280;4599;50.906;6.786;2023-05-02T05:51:24;17212.44;;;-142.83;81.38
9129;BME280;4599;50.906;6.786;2023-05-02T05:55:47;17200.16;;;-142.83;81.93
9129;BME280;4599;50.906;6.786;2023-05-02T06:00:10;17194.03;;;-142.83;81.96
9129;BME280;4599;50.906;6.786;2023-05-02T06:04:32;17198.13;;;-142.83;82.96
9129;BME280;4599;50.906;6.786;2023-05-02T06:08:54;17220.63;;;-142.83;83.16
9129;BME280;4599;50.906;6.786;2023-05-02T06:13:17;17194.03;;;-142.83;83.64
9129;BME280;4599;50.906;6.786;2023-05-02T06:17:39;17216.53;;;-142.83;83.25
9129;BME280;4599;50.906;6.786;2023-05-02T06:22:01;17206.28;;;-142.83;83.60
9129;BME280;4599;50.906;6.786;2023-05-02T06:26:22;17208.34;;;-142.83;84.00
9129;BME280;4599;50.906;6.786;2023-05-02T06:30:46;17216.53;;;-142.83;83.95
9129;BME280;4599;50.906;6.786;2023-05-02T06:35:08;17206.28;;;-142.83;83.85
9129;BME280;4599;50.906;6.786;2023-05-02T06:39:30;17185.84;;;-142.83;84.29
9129;BME280;4599;50.906;6.786;2023-05-02T06:43:52;17167.44;;;-142.83;84.33
9129;BME280;4599;50.906;6.786;2023-05-02T06:48:15;17181.75;;;-142.83;84.83
9129;BME280;4599;50.906;6.786;2023-05-02T06:52:37;17196.06;;;-142.83;84.28
9129;BME280;4599;50.906;6.786;2023-05-02T06:56:58;17169.47;;;-142.83;83.57
9129;BME280;4599;50.906;6.786;2023-05-02T07:01:20;17214.47;;;-142.83;83.17
9129;BME280;4599;50.906;6.786;2023-05-02T07:05:43;17175.63;;;-142.83;83.43
9129;BME280;4599;50.906;6.786;2023-05-02T07:10:06;17200.16;;;-142.83;83.27
9129;BME280;4599;50.906;6.786;2023-05-02T07:14:28;17222.66;;;-142.83;82.96
9129;BME280;4599;50.906;6.786;2023-05-02T07:18:50;17204.25;;;-142.83;83.03
9129;BME280;4599;50.906;6.786;2023-05-02T07:23:13;17200.16;;;-142.83;82.49
9129;BME280;4599;50.906;6.786;2023-05-02T07:27:35;17200.16;;;-142.83;81.00
9129;BME280;4599;50.906;6.786;2023-05-02T07:31:57;17212.44;;;-142.83;80.05
9129;BME280;4599;50.906;6.786;2023-05-02T07:36:19;17220.63;;;-142.83;80.47
9129;BME280;4599;50.906;6.786;2023-05-02T07:40:42;17226.75;;;-142.83;80.83
9129;BME280;4599;50.906;6.786;2023-05-02T07:45:04;17265.63;;;-142.83;78.94
9129;BME280;4599;50.906;6.786;2023-05-02T07:49:26;17218.56;;;-142.83;80.17
9129;BME280;4599;50.906;6.786;2023-05-02T07:53:49;17228.78;;;-142.83;78.55
9129;BME280;4599;50.906;6.786;2023-05-02T07:58:12;17232.88;;;-142.83;78.06
9129;BME280;4599;50.906;6.786;2023-05-02T08:02:34;17243.13;;;-142.83;77.67
9129;BME280;4599;50.906;6.786;2023-05-02T08:06:56;17273.78;;;-142.83;77.31
9129;BME280;4599;50.906;6.786;2023-05-02T08:11:18;17318.78;;;-142.83;76.24
9129;BME280;4599;50.906;6.786;2023-05-02T08:15:42;17306.53;;;-142.83;75.36
9129;BME280;4599;50.906;6.786;2023-05-02T08:20:05;17341.28;;;-142.83;75.49
9129;BME280;4599;50.906;6.786;2023-05-02T08:24:27;17371.97;;;-142.83;73.42
9129;BME280;4599;50.906;6.786;2023-05-02T08:28:50;17376.06;;;-142.83;73.21
9129;BME280;4599;50.906;6.786;2023-05-02T08:33:13;17408.78;;;-142.83;71.38
9129;BME280;4599;50.906;6.786;2023-05-02T08:37:35;17429.25;;;-142.83;70.42
9129;BME280;4599;50.906;6.786;2023-05-02T08:41:57;17384.25;;;-142.83;71.89
9129;BME280;4599;50.906;6.786;2023-05-02T08:46:21;17363.78;;;-142.83;70.22
9129;BME280;4599;50.906;6.786;2023-05-02T08:50:45;17357.66;;;-142.83;70.26
9129;BME280;4599;50.906;6.786;2023-05-02T08:55:07;17316.75;;;-142.83;69.85
9129;BME280;4599;50.906;6.786;2023-05-02T08:59:29;17359.69;;;-142.83;67.13
9129;BME280;4599;50.906;6.786;2023-05-02T09:03:51;17378.09;;;-142.83;67.70
9129;BME280;4599;50.906;6.786;2023-05-02T09:08:20;17433.34;;;-142.83;67.32
9129;BME280;4599;50.906;6.786;2023-05-02T09:12:42;17506.97;;;-142.83;64.26
9129;BME280;4599;50.906;6.786;2023-05-02T09:17:04;17451.75;;;-142.83;63.99
9129;BME280;4599;50.906;6.786;2023-05-02T09:21:34;17427.19;;;-142.83;63.75
9129;BME280;4599;50.906;6.786;2023-05-02T09:25:58;17429.25;;;-142.83;63.75
9129;BME280;4599;50.906;6.786;2023-05-02T09:30:22;17474.25;;;-142.83;62.95
9129;BME280;4599;50.906;6.786;2023-05-02T09:35:03;17466.06;;;-142.83;62.06
9129;BME280;4599;50.906;6.786;2023-05-02T09:39:26;17461.97;;;-142.83;61.46
9129;BME280;4599;50.906;6.786;2023-05-02T09:43:55;17498.78;;;-142.83;61.50
9129;BME280;4599;50.906;6.786;2023-05-02T09:48:17;17437.44;;;-142.83;62.23
9129;BME280;4599;50.906;6.786;2023-05-02T09:52:39;17496.75;;;-142.83;62.46
9129;BME280;4599;50.906;6.786;2023-05-02T09:57:01;17525.38;;;-142.83;62.18
9129;BME280;4599;50.906;6.786;2023-05-02T10:01:24;17539.69;;;-142.83;61.83
9129;BME280;4599;50.906;6.786;2023-05-02T10:05:46;17580.63;;;-142.83;60.00
9129;BME280;4599;50.906;6.786;2023-05-02T10:10:10;17623.56;;;-142.83;59.58
9129;BME280;4599;50.906;6.786;2023-05-02T10:14:38;17772.91;;;-142.83;58.53
9129;BME280;4599;50.906;6.786;2023-05-02T10:19:06;17658.34;;;-142.83;58.48
9129;BME280;4599;50.906;6.786;2023-05-02T10:23:29;17658.34;;;-142.83;58.53
9129;BME280;4599;50.906;6.786;2023-05-02T10:27:51;17605.16;;;-142.83;60.99
9129;BME280;4599;50.906;6.786;2023-05-02T10:32:15;17670.63;;;-142.83;58.50
9129;BME280;4599;50.906;6.786;2023-05-02T10:36:39;17637.88;;;-142.83;58.60
9129;BME280;4599;50.906;6.786;2023-05-02T10:41:05;17601.06;;;-142.83;58.05
9129;BME280;4599;50.906;6.786;2023-05-02T10:45:30;17613.34;;;-142.83;57.37
9129;BME280;4599;50.906;6.786;2023-05-02T10:49:55;17599.03;;;-142.83;56.97
9129;BME280;4599;50.906;6.786;2023-05-02T10:54:20;17455.84;;;-142.83;59.87
9129;BME280;4599;50.906;6.786;2023-05-02T10:58:43;17541.75;;;-142.83;58.30
9129;BME280;4599;50.906;6.786;2023-05-02T11:03:05;17562.19;;;-142.83;58.33
9129;BME280;4599;50.906;6.786;2023-05-02T11:07:27;17484.47;;;-142.83;59.17
9129;BME280;4599;50.906;6.786;2023-05-02T11:11:51;17466.06;;;-142.83;60.48
9129;BME280;4599;50.906;6.786;2023-05-02T11:16:12;17502.88;;;-142.83;59.53
9129;BME280;4599;50.906;6.786;2023-05-02T11:20:35;17551.97;;;-142.83;58.69
9129;BME280;4599;50.906;6.786;2023-05-02T11:24:57;17537.66;;;-142.83;58.19
9129;BME280;4599;50.906;6.786;2023-05-02T11:29:54;17535.59;;;-142.83;59.48
9129;BME280;4599;50.906;6.786;2023-05-02T11:34:17;17531.53;;;-142.83;58.76
9129;BME280;4599;50.906;6.786;2023-05-02T11:38:39;17572.44;;;-142.83;57.12
9129;BME280;4599;50.906;6.786;2023-05-02T11:43:11;17633.78;;;-142.83;55.67
9129;BME280;4599;50.906;6.786;2023-05-02T11:47:35;17654.25;;;-142.83;55.45
9129;BME280;4599;50.906;6.786;2023-05-02T11:51:57;17605.16;;;-142.83;54.85
9129;BME280;4599;50.906;6.786;2023-05-02T11:56:23;17785.16;;;-142.83;51.93
9129;BME280;4599;50.906;6.786;2023-05-02T12:00:46;17826.09;;;-142.83;51.06
9129;BME280;4599;50.906;6.786;2023-05-02T12:05:10;18059.28;;;-142.83;51.13
9129;BME280;4599;50.906;6.786;2023-05-02T12:09:32;17815.84;;;-142.83;50.21
9129;BME280;4599;50.906;6.786;2023-05-02T12:13:54;17907.91;;;-142.83;50.98
9129;BME280;4599;50.906;6.786;2023-05-02T12:18:16;17838.34;;;-142.83;50.01
9129;BME280;4599;50.906;6.786;2023-05-02T12:22:44;17717.66;;;-142.83;51.09
9129;BME280;4599;50.906;6.786;2023-05-02T12:27:10;17607.22;;;-142.83;53.74
9129;BME280;4599;50.906;6.786;2023-05-02T12:31:32;17678.81;;;-142.83;52.65
9129;BME280;4599;50.906;6.786;2023-05-02T12:36:05;17721.75;;;-142.83;52.23
9129;BME280;4599;50.906;6.786;2023-05-02T12:40:28;17695.16;;;-142.83;51.97
9129;BME280;4599;50.906;6.786;2023-05-02T12:44:51;17734.03;;;-142.83;50.82
9129;BME280;4599;50.906;6.786;2023-05-02T12:49:13;17768.81;;;-142.83;49.65
9129;BME280;4599;50.906;6.786;2023-05-02T12:53:38;17756.53;;;-142.83;50.07
9129;BME280;4599;50.906;6.786;2023-05-02T12:58:03;17819.94;;;-142.83;50.98
9129;BME280;4599;50.906;6.786;2023-05-02T13:02:25;17909.97;;;-142.83;47.92
9129;BME280;4599;50.906;6.786;2023-05-02T13:06:47;17787.22;;;-142.83;48.85
9129;BME280;4599;50.906;6.786;2023-05-02T13:11:09;18016.34;;;-142.83;48.55
9129;BME280;4599;50.906;6.786;2023-05-02T13:15:32;17944.72;;;-142.83;45.07
9129;BME280;4599;50.906;6.786;2023-05-02T13:19:54;18085.91;;;-142.83;46.00
9129;BME280;4599;50.906;6.786;2023-05-02T13:24:22;17946.78;;;-142.83;44.93
9129;BME280;4599;50.906;6.786;2023-05-02T13:28:44;17846.53;;;-142.83;44.60
9129;BME280;4599;50.906;6.786;2023-05-02T13:33:07;17862.91;;;-142.83;43.55
9129;BME280;4599;50.906;6.786;2023-05-02T13:37:29;17819.94;;;-142.83;45.09
9129;BME280;4599;50.906;6.786;2023-05-02T13:41:51;17950.88;;;-142.83;43.78
9129;BME280;4599;50.906;6.786;2023-05-02T13:46:13;18012.25;;;-142.83;43.31
9129;BME280;4599;50.906;6.786;2023-05-02T13:50:36;17942.69;;;-142.83;42.93
9129;BME280;4599;50.906;6.786;2023-05-02T13:54:57;18116.56;;;-142.83;43.45
9129;BME280;4599;50.906;6.786;2023-05-02T13:59:19;18026.56;;;-142.83;42.29
9129;BME280;4599;50.906;6.786;2023-05-02T14:03:41;17932.47;;;-142.83;42.77
9129;BME280;4599;50.906;6.786;2023-05-02T14:08:04;18126.81;;;-142.83;42.00
9129;BME280;4599;50.906;6.786;2023-05-02T14:12:26;18040.88;;;-142.83;42.85
9129;BME280;4599;50.906;6.786;2023-05-02T14:16:48;17918.13;;;-142.83;43.70
9129;BME280;4599;50.906;6.786;2023-05-02T14:21:11;17897.69;;;-142.83;43.20
9129;BME280;4599;50.906;6.786;2023-05-02T14:25:34;17918.13;;;-142.83;43.61
9129;BME280;4599;50.906;6.786;2023-05-02T14:29:56;17854.72;;;-142.83;42.94
9129;BME280;4599;50.906;6.786;2023-05-02T14:34:18;17852.69;;;-142.83;43.12
9129;BME280;4599;50.906;6.786;2023-05-02T14:38:40;17721.75;;;-142.83;45.49
9129;BME280;4599;50.906;6.786;2023-05-02T14:43:03;17912.00;;;-142.83;43.19
9129;BME280;4599;50.906;6.786;2023-05-02T14:47:26;17834.25;;;-142.83;42.83
9129;BME280;4599;50.906;6.786;2023-05-02T14:51:49;17940.66;;;-142.83;44.16
9129;BME280;4599;50.906;6.786;2023-05-02T14:56:11;17944.72;;;-142.83;42.39
9129;BME280;4599;50.906;6.786;2023-05-02T15:00:34;17965.19;;;-142.83;41.42
9129;BME280;4599;50.906;6.786;2023-05-02T15:04:56;17924.28;;;-142.83;41.20
9129;BME280;4599;50.906;6.786;2023-05-02T15:09:18;17871.09;;;-142.83;41.17
9129;BME280;4599;50.906;6.786;2023-05-02T15:13:40;17830.19;;;-142.83;43.36
9129;BME280;4599;50.906;6.786;2023-05-02T15:18:04;17846.53;;;-142.83;42.62
9129;BME280;4599;50.906;6.786;2023-05-02T15:22:26;17809.72;;;-142.83;41.95
9129;BME280;4599;50.906;6.786;2023-05-02T15:26:48;17811.75;;;-142.83;41.94
9129;BME280;4599;50.906;6.786;2023-05-02T15:31:10;17817.91;;;-142.83;41.97
9129;BME280;4599;50.906;6.786;2023-05-02T15:35:33;17768.81;;;-142.83;43.19
9129;BME280;4599;50.906;6.786;2023-05-02T15:39:55;17772.91;;;-142.83;42.63
9129;BME280;4599;50.906;6.786;2023-05-02T15:44:17;17774.94;;;-142.83;42.78
9129;BME280;4599;50.906;6.786;2023-05-02T15:48:39;17744.25;;;-142.83;42.79
9129;BME280;4599;50.906;6.786;2023-05-02T15:53:02;17736.06;;;-142.83;42.97
9129;BME280;4599;50.906;6.786;2023-05-02T15:57:24;17760.63;;;-142.83;42.68
9129;BME280;4599;50.906;6.786;2023-05-02T16:01:46;17740.16;;;-142.83;43.80
9129;BME280;4599;50.906;6.786;2023-05-02T16:06:09;17746.31;;;-142.83;43.60
9129;BME280;4599;50.906;6.786;2023-05-02T16:10:32;17736.06;;;-142.83;42.99
9129;BME280;4599;50.906;6.786;2023-05-02T16:14:54;17699.25;;;-142.83;43.58
9129;BME280;4599;50.906;6.786;2023-05-02T16:19:16;17703.34;;;-142.83;44.21
9129;BME280;4599;50.906;6.786;2023-05-02T16:23:38;17670.63;;;-142.83;43.53
9129;BME280;4599;50.906;6.786;2023-05-02T16:28:01;17658.34;;;-142.83;43.72
9129;BME280;4599;50.906;6.786;2023-05-02T16:32:23;17646.06;;;-142.83;44.40
9129;BME280;4599;50.906;6.786;2023-05-02T16:36:45;17674.72;;;-142.83;44.53
9129;BME280;4599;50.906;6.786;2023-05-02T16:41:07;17672.66;;;-142.83;45.97
9129;BME280;4599;50.906;6.786;2023-05-02T16:45:30;17654.25;;;-142.83;44.75
9129;BME280;4599;50.906;6.786;2023-05-02T16:49:52;17650.16;;;-142.83;43.77
9129;BME280;4599;50.906;6.786;2023-05-02T16:54:14;17641.97;;;-142.83;46.05
9129;BME280;4599;50.906;6.786;2023-05-02T16:58:36;17603.13;;;-142.83;46.03
9129;BME280;4599;50.906;6.786;2023-05-02T17:02:59;17625.63;;;-142.83;44.25
9129;BME280;4599;50.906;6.786;2023-05-02T17:07:24;17603.13;;;-142.83;46.28
9129;BME280;4599;50.906;6.786;2023-05-02T17:11:46;17545.84;;;-142.83;47.58
9129;BME280;4599;50.906;6.786;2023-05-02T17:16:07;17584.69;;;-142.83;45.86
9129;BME280;4599;50.906;6.786;2023-05-02T17:20:31;17574.47;;;-142.83;45.43
9129;BME280;4599;50.906;6.786;2023-05-02T17:24:53;17570.38;;;-142.83;46.36
9129;BME280;4599;50.906;6.786;2023-05-02T17:29:15;17572.44;;;-142.83;46.13
9129;BME280;4599;50.906;6.786;2023-05-02T17:33:36;17504.94;;;-142.83;49.43
9129;BME280;4599;50.906;6.786;2023-05-02T17:38:00;17570.38;;;-142.83;46.78
9129;BME280;4599;50.906;6.786;2023-05-02T17:42:21;17502.88;;;-142.83;47.31
9129;BME280;4599;50.906;6.786;2023-05-02T17:46:43;17523.34;;;-142.83;51.33
9129;BME280;4599;50.906;6.786;2023-05-02T17:51:05;17472.19;;;-142.83;51.54
9129;BME280;4599;50.906;6.786;2023-05-02T17:55:28;17433.34;;;-142.83;51.11
9129;BME280;4599;50.906;6.786;2023-05-02T17:59:50;17441.53;;;-142.83;52.73
9129;BME280;4599;50.906;6.786;2023-05-02T18:04:12;17449.69;;;-142.83;51.64
9129;BME280;4599;50.906;6.786;2023-05-02T18:08:34;17414.94;;;-142.83;53.22
9129;BME280;4599;50.906;6.786;2023-05-02T18:12:57;17402.66;;;-142.83;53.77
9129;BME280;4599;50.906;6.786;2023-05-02T18:17:19;17433.34;;;-142.83;53.78
9129;BME280;4599;50.906;6.786;2023-05-02T18:21:42;17376.06;;;-142.83;55.60
9129;BME280;4599;50.906;6.786;2023-05-02T18:26:10;17333.09;;;-142.83;56.49
9129;BME280;4599;50.906;6.786;2023-05-02T18:30:36;17365.84;;;-142.83;54.81
9129;BME280;4599;50.906;6.786;2023-05-02T18:34:57;17355.59;;;-142.83;57.06
9129;BME280;4599;50.906;6.786;2023-05-02T18:39:20;17341.28;;;-142.83;56.65
9129;BME280;4599;50.906;6.786;2023-05-02T18:43:41;17320.84;;;-142.83;nan
9129;BME280;4599;50.906;6.786;2023-05-02T18:48:05;17335.16;;;-142.83;56.96
9129;BME280;4599;50.906;6.786;2023-05-02T18:52:28;17318.78;;;-142.83;57.91
9129;BME280;4599;50.906;6.786;2023-05-02T18:56:50;17322.88;;;-142.83;56.99
9129;BME280;4599;50.906;6.786;2023-05-02T19:01:12;17277.88;;;-142.83;57.99
9129;BME280;4599;50.906;6.786;2023-05-02T19:05:35;17290.16;;;-142.83;58.26
9129;BME280;4599;50.906;6.786;2023-05-02T19:09:59;17296.28;;;-142.83;56.08
9129;BME280;4599;50.906;6.786;2023-05-02T19:14:22;17339.25;;;-142.83;55.70
9129;BME280;4599;50.906;6.786;2023-05-02T19:18:44;17306.53;;;-142.83;55.15
9129;BME280;4599;50.906;6.786;2023-05-02T19:23:07;17333.09;;;-142.83;54.50
9129;BME280;4599;50.906;6.786;2023-05-02T19:27:42;17275.84;;;-142.83;56.51
9129;BME280;4599;50.906;6.786;2023-05-02T19:32:04;17290.16;;;-142.83;56.66
9129;BME280;4599;50.906;6.786;2023-05-02T19:36:26;17265.63;;;-142.83;57.48
9129;BME280;4599;50.906;6.786;2023-05-02T19:40:49;17277.88;;;-142.83;57.52
9129;BME280;4599;50.906;6.786;2023-05-02T19:45:11;17243.13;;;-142.83;58.20
9129;BME280;4599;50.906;6.786;2023-05-02T19:49:32;17259.47;;;-142.83;57.62
9129;BME280;4599;50.906;6.786;2023-05-02T19:53:54;17216.53;;;-142.83;57.90
9129;BME280;4599;50.906;6.786;2023-05-02T19:58:18;17263.56;;;-142.83;55.94
9129;BME280;4599;50.906;6.786;2023-05-02T20:02:39;17263.56;;;-142.83;55.68
9129;BME280;4599;50.906;6.786;2023-05-02T20:07:01;17294.25;;;-142.83;54.93
9129;BME280;4599;50.906;6.786;2023-05-02T20:11:23;17245.16;;;-142.83;54.62
9129;BME280;4599;50.906;6.786;2023-05-02T20:15:49;17290.16;;;-142.83;55.31
9129;BME280;4599;50.906;6.786;2023-05-02T20:20:11;17277.88;;;-142.83;54.40
9129;BME280;4599;50.906;6.786;2023-05-02T20:24:33;17279.94;;;-142.83;54.54
9129;BME280;4599;50.906;6.786;2023-05-02T20:28:55;17236.97;;;-142.83;54.97
9129;BME280;4599;50.906;6.786;2023-05-02T20:33:19;17249.25;;;-142.83;55.79
9129;BME280;4599;50.906;6.786;2023-05-02T20:37:42;17265.63;;;-142.83;56.94
9129;BME280;4599;50.906;6.786;2023-05-02T20:42:04;17245.16;;;-142.83;56.58
9129;BME280;4599;50.906;6.786;2023-05-02T20:46:26;17249.25;;;-142.83;57.11
9129;BME280;4599;50.906;6.786;2023-05-02T20:50:53;17239.03;;;-142.83;57.14
9129;BME280;4599;50.906;6.786;2023-05-02T20:55:15;17226.75;;;-142.83;58.17
9129;BME280;4599;50.906;6.786;2023-05-02T20:59:37;17220.63;;;-142.83;59.09
9129;BME280;4599;50.906;6.786;2023-05-02T21:03:58;17210.38;;;-142.83;59.36
9129;BME280;4599;50.906;6.786;2023-05-02T21:08:22;17212.44;;;-142.83;60.76
9129;BME280;4599;50.906;6.786;2023-05-02T21:12:46;17169.47;;;-142.83;61.06
9129;BME280;4599;50.906;6.786;2023-05-02T21:17:08;17159.25;;;-142.83;61.71
9129;BME280;4599;50.906;6.786;2023-05-02T21:21:29;17159.25;;;-142.83;61.32
9129;BME280;4599;50.906;6.786;2023-05-02T21:25:53;17153.13;;;-142.83;61.43
9129;BME280;4599;50.906;6.786;2023-05-02T21:30:14;17151.06;;;-142.83;62.06
9129;BME280;4599;50.906;6.786;2023-05-02T21:34:36;17151.06;;;-142.83;61.46
9129;BME280;4599;50.906;6.786;2023-05-02T21:38:58;17140.84;;;-142.83;61.87
9129;BME280;4599;50.906;6.786;2023-05-02T21:43:21;17161.31;;;-142.83;62.53
9129;BME280;4599;50.906;6.786;2023-05-02T21:47:44;17165.38;;;-142.83;60.71
9129;BME280;4599;50.906;6.786;2023-05-02T21:52:05;17128.56;;;-142.83;62.08
9129;BME280;4599;50.906;6.786;2023-05-02T21:56:27;17146.97;;;-142.83;62.06
9129;BME280;4599;50.906;6.786;2023-05-02T22:00:51;65880.28;;;-142.83;100.00
9129;BME280;4599;50.906;6.786;2023-05-02T22:05:13;65880.28;;;-142.83;100.00
9129;BME280;4599;50.906;6.786;2023-05-02T22:09:35;65880.28;;;-142.83;100.00
9129;BME280;4599;50.906;6.786;2023-05-02T22:13:57;65880.28;;;-142.83;100.00
9129;BME280;4599;50.906;6.786;2023-05-02T22:18:20;65880.28;;;-142.83;100.00
9129;BME280;4599;50.906;6.786;2023-05-02T22:22:42;65880.28;;;-142.83;100.00
9129;BME280;4599;50.906;6.786;2023-05-02T22:27:03;65880.28;;;-142.83;100.00
9129;BME280;4599;50.906;6.786;2023-05-02T22:31:25;65880.28;;;-142.83;100.00
9129;BME280;4599;50.906;6.786;2023-05-02T22:35:49;65880.28;;;-142.83;100.00
9129;BME280;4599;50.906;6.786;2023-05-02T22:40:11;65880.28;;;-142.83;100.00
9129;BME280;4599;50.906;6.786;2023-05-02T22:44:33;65880.28;;;-142.83;100.00
9129;BME280;4599;50.906;6.786;2023-05-02T22:49:11;65880.28;;;-142.83;100.00
9129;BME280;4599;50.906;6.786;2023-05-02T22:53:34;65880.28;;;-142.83;100.00
9129;BME280;4599;50.906;6.786;2023-05-02T22:57:56;65880.28;;;-142.83;100.00
9129;BME280;4599;50.906;6.786;2023-05-02T23:02:18;65880.28;;;-142.83;100.00
9129;BME280;4599;50.906;6.786;2023-05-02T23:06:40;65880.28;;;-142.83;100.00
9129;BME280;4599;50.906;6.786;2023-05-02T23:11:03;65880.28;;;-142.83;100.00
9129;BME280;4599;50.906;6.786;2023-05-02T23:15:25;65880.28;;;-142.83;100.00